createdAt,value
2018-06-20T00:00:14.486Z,20.80
2018-06-20T00:02:42.958Z,20.80
2018-06-20T00:05:11.424Z,20.70
2018-06-20T00:07:39.865Z,20.70
2018-06-20T00:10:08.321Z,20.70
2018-06-20T00:12:36.793Z,20.60
2018-06-20T00:15:05.586Z,20.60
2018-06-20T00:17:34.013Z,20.60
2018-06-20T00:20:02.459Z,20.60
2018-06-20T00:22:30.913Z,20.60
2018-06-20T00:24:59.473Z,20.60
2018-06-20T00:27:27.961Z,20.60
2018-06-20T00:29:56.405Z,20.50
2018-06-20T00:32:24.857Z,20.50
2018-06-20T00:34:53.311Z,20.50
2018-06-20T00:39:50.007Z,20.40
2018-06-20T00:42:19.321Z,20.40
2018-06-20T00:44:47.776Z,20.40
2018-06-20T00:47:16.221Z,20.40
2018-06-20T00:49:44.709Z,20.40
2018-06-20T00:52:13.165Z,20.40
2018-06-20T00:54:41.611Z,20.30
2018-06-20T00:57:10.129Z,20.30
2018-06-20T00:59:38.567Z,20.20
2018-06-20T01:02:07.025Z,20.20
2018-06-20T01:04:35.463Z,20.20
2018-06-20T01:07:03.953Z,20.10
2018-06-20T01:09:32.402Z,20.00
2018-06-20T01:12:00.881Z,19.90
2018-06-20T01:14:29.325Z,19.90
2018-06-20T01:19:25.937Z,20.00
2018-06-20T01:21:54.389Z,20.00
2018-06-20T01:24:22.861Z,20.00
2018-06-20T01:26:54.201Z,20.00
2018-06-20T01:29:22.641Z,20.00
2018-06-20T01:31:51.146Z,20.00
2018-06-20T01:34:19.624Z,19.90
2018-06-20T01:36:48.101Z,19.90
2018-06-20T01:39:16.544Z,19.90
2018-06-20T01:41:45.014Z,19.80
2018-06-20T01:44:13.473Z,19.80
2018-06-20T01:46:41.953Z,19.70
2018-06-20T01:49:10.501Z,19.60
2018-06-20T01:51:38.949Z,19.60
2018-06-20T01:54:07.397Z,19.50
2018-06-20T01:56:35.841Z,19.50
2018-06-20T01:59:04.327Z,19.40
2018-06-20T02:04:00.917Z,19.40
2018-06-20T02:06:29.384Z,19.30
2018-06-20T02:11:29.105Z,19.20
2018-06-20T02:13:57.625Z,19.10
2018-06-20T02:16:26.096Z,19.10
2018-06-20T02:18:54.636Z,19.00
2018-06-20T02:21:23.089Z,18.90
2018-06-20T02:23:51.657Z,18.90
2018-06-20T02:26:20.125Z,18.80
2018-06-20T02:28:48.589Z,18.80
2018-06-20T02:31:17.046Z,18.70
2018-06-20T02:33:45.865Z,18.70
2018-06-20T02:36:47.374Z,18.70
2018-06-20T02:39:15.746Z,18.70
2018-06-20T02:41:44.200Z,18.70
2018-06-20T02:44:12.670Z,18.70
2018-06-20T02:46:41.125Z,18.70
2018-06-20T02:54:05.869Z,18.60
2018-06-20T02:56:34.365Z,18.60
2018-06-20T02:59:02.862Z,18.60
2018-06-20T03:01:31.339Z,18.60
2018-06-20T03:03:59.809Z,18.70
2018-06-20T03:06:28.279Z,18.60
2018-06-20T03:09:01.800Z,18.60
2018-06-20T03:11:30.621Z,18.60
2018-06-20T03:13:59.086Z,18.60
2018-06-20T03:16:27.541Z,18.60
2018-06-20T03:18:56.049Z,18.60
2018-06-20T03:21:24.550Z,18.60
2018-06-20T03:23:53.180Z,18.70
2018-06-20T03:26:21.636Z,18.70
2018-06-20T03:28:50.091Z,18.70
2018-06-20T03:31:18.529Z,18.70
2018-06-20T03:33:46.974Z,18.70
2018-06-20T03:36:15.432Z,18.80
2018-06-20T03:38:43.869Z,18.80
2018-06-20T03:41:12.329Z,18.80
2018-06-20T03:43:40.781Z,18.90
2018-06-20T03:48:37.474Z,18.90
2018-06-20T03:51:06.093Z,18.90
2018-06-20T03:53:34.606Z,18.90
2018-06-20T03:56:03.058Z,18.90
2018-06-20T03:58:31.525Z,18.90
2018-06-20T04:01:00.076Z,18.90
2018-06-20T04:03:28.543Z,19.00
2018-06-20T04:05:57.040Z,19.00
2018-06-20T04:08:25.486Z,19.10
2018-06-20T04:10:53.951Z,19.10
2018-06-20T04:14:51.821Z,19.20
2018-06-20T04:17:20.286Z,19.20
2018-06-20T04:19:48.721Z,19.30
2018-06-20T04:24:45.375Z,19.40
2018-06-20T04:32:10.169Z,19.60
2018-06-20T04:34:38.773Z,19.70
2018-06-20T04:37:07.190Z,19.70
2018-06-20T04:39:35.633Z,19.80
2018-06-20T04:42:04.241Z,19.90
2018-06-20T04:44:32.722Z,19.90
2018-06-20T04:47:01.182Z,20.00
2018-06-20T04:49:29.677Z,20.10
2018-06-20T04:51:58.117Z,20.10
2018-06-20T04:54:26.564Z,20.20
2018-06-20T04:56:55.098Z,20.30
2018-06-20T04:59:23.565Z,20.40
2018-06-20T05:01:52.018Z,20.50
2018-06-20T05:04:20.589Z,20.60
2018-06-20T05:06:48.971Z,20.70
2018-06-20T05:09:19.141Z,20.70
2018-06-20T05:11:49.281Z,20.80
2018-06-20T05:14:18.461Z,20.90
2018-06-20T05:16:47.076Z,20.90
2018-06-20T05:19:15.641Z,21.00
2018-06-20T05:21:44.096Z,21.00
2018-06-20T05:24:12.557Z,21.10
2018-06-20T05:26:40.999Z,21.10
2018-06-20T05:29:09.453Z,21.10
2018-06-20T05:31:37.892Z,21.10
2018-06-20T05:34:06.367Z,21.10
2018-06-20T05:36:34.865Z,21.10
2018-06-20T05:39:03.430Z,21.20
2018-06-20T05:41:31.904Z,21.20
2018-06-20T05:44:00.358Z,21.30
2018-06-20T05:46:28.813Z,21.40
2018-06-20T05:48:57.546Z,21.40
2018-06-20T05:51:26.041Z,21.50
2018-06-20T05:53:54.501Z,21.60
2018-06-20T05:56:22.973Z,21.70
2018-06-20T05:58:51.460Z,21.80
2018-06-20T06:03:48.466Z,21.90
2018-06-20T06:06:17.389Z,22.00
2018-06-20T06:09:13.878Z,22.10
2018-06-20T06:11:43.182Z,22.20
2018-06-20T06:14:11.653Z,22.30
2018-06-20T06:16:40.118Z,22.40
2018-06-20T06:19:08.569Z,22.50
2018-06-20T06:21:37.134Z,22.50
2018-06-20T06:24:05.597Z,22.60
2018-06-20T06:26:34.098Z,22.80
2018-06-20T06:29:02.580Z,22.80
2018-06-20T06:31:31.129Z,22.90
2018-06-20T06:33:59.569Z,23.10
2018-06-20T06:36:28.081Z,23.10
2018-06-20T06:38:56.576Z,23.20
2018-06-20T06:41:25.085Z,23.30
2018-06-20T06:43:53.542Z,23.40
2018-06-20T06:46:21.988Z,23.50
2018-06-20T06:48:50.555Z,23.50
2018-06-20T06:51:19.008Z,23.60
2018-06-20T06:53:47.793Z,23.70
2018-06-20T06:56:16.278Z,23.70
2018-06-20T06:58:44.765Z,23.80
2018-06-20T07:01:13.212Z,23.80
2018-06-20T07:03:41.672Z,23.90
2018-06-20T07:06:10.145Z,23.90
2018-06-20T07:08:38.585Z,23.90
2018-06-20T07:11:07.029Z,24.00
2018-06-20T07:13:35.477Z,24.00
2018-06-20T07:18:32.045Z,24.10
2018-06-20T07:21:00.538Z,24.20
2018-06-20T07:23:29.036Z,24.20
2018-06-20T07:25:57.497Z,24.30
2018-06-20T07:28:26.050Z,24.40
2018-06-20T07:30:54.512Z,24.50
2018-06-20T07:33:23.014Z,24.50
2018-06-20T07:35:51.573Z,24.60
2018-06-20T07:38:19.934Z,24.60
2018-06-20T07:40:48.429Z,24.60
2018-06-20T07:43:16.868Z,24.70
2018-06-20T07:45:45.375Z,24.70
2018-06-20T07:48:13.826Z,24.70
2018-06-20T07:50:42.278Z,24.80
2018-06-20T07:53:10.722Z,24.80
2018-06-20T07:55:39.306Z,24.90
2018-06-20T07:58:07.889Z,24.90
2018-06-20T08:00:41.907Z,25.10
2018-06-20T08:03:19.028Z,25.20
2018-06-20T08:05:52.938Z,25.20
2018-06-20T08:08:26.848Z,25.30
2018-06-20T08:11:00.673Z,25.30
2018-06-20T08:13:34.610Z,25.40
2018-06-20T08:16:08.462Z,25.50
2018-06-20T08:18:42.418Z,25.60
2018-06-20T08:21:10.990Z,25.70
2018-06-20T08:23:39.566Z,25.80
2018-06-20T08:26:08.066Z,25.80
2018-06-20T08:28:36.717Z,25.90
2018-06-20T08:31:05.294Z,25.80
2018-06-20T08:33:33.856Z,25.90
2018-06-20T08:36:02.348Z,26.00
2018-06-20T08:38:30.813Z,26.00
2018-06-20T08:40:59.361Z,26.10
2018-06-20T08:43:27.824Z,26.20
2018-06-20T08:45:56.309Z,26.30
2018-06-20T08:48:24.781Z,26.30
2018-06-20T08:50:53.222Z,26.30
2018-06-20T08:53:21.688Z,26.30
2018-06-20T08:55:50.129Z,26.30
2018-06-20T08:58:18.565Z,26.40
2018-06-20T09:00:52.381Z,26.40
2018-06-20T09:03:21.997Z,26.40
2018-06-20T09:05:55.881Z,26.40
2018-06-20T09:08:29.657Z,26.40
2018-06-20T09:11:03.424Z,26.50
2018-06-20T09:13:37.312Z,26.60
2018-06-20T09:16:11.133Z,26.70
2018-06-20T09:18:44.849Z,26.70
2018-06-20T09:23:41.456Z,26.90
2018-06-20T09:26:09.933Z,26.90
2018-06-20T09:28:38.385Z,26.80
2018-06-20T09:31:06.868Z,26.80
2018-06-20T09:33:35.301Z,26.80
2018-06-20T09:36:03.765Z,26.90
2018-06-20T09:38:32.259Z,26.90
2018-06-20T09:41:00.693Z,27.00
2018-06-20T09:43:29.134Z,27.10
2018-06-20T09:45:57.581Z,27.20
2018-06-20T09:48:26.023Z,27.30
2018-06-20T09:50:57.669Z,27.40
2018-06-20T09:53:26.518Z,27.50
2018-06-20T09:55:55.212Z,27.60
2018-06-20T09:58:23.674Z,27.70
2018-06-20T10:00:58.519Z,27.70
2018-06-20T10:03:32.440Z,27.80
2018-06-20T10:06:06.247Z,27.90
2018-06-20T10:08:40.128Z,27.90
2018-06-20T10:11:13.980Z,28.00
2018-06-20T10:13:44.911Z,28.20
2018-06-20T10:16:13.360Z,28.20
2018-06-20T10:18:41.799Z,28.30
2018-06-20T10:21:10.618Z,28.40
2018-06-20T10:23:39.221Z,28.50
2018-06-20T10:26:07.676Z,28.60
2018-06-20T10:28:36.194Z,28.70
2018-06-20T10:31:04.653Z,28.80
2018-06-20T10:33:33.089Z,28.90
2018-06-20T10:36:01.537Z,29.00
2018-06-20T10:38:29.973Z,29.10
2018-06-20T10:40:58.410Z,29.20
2018-06-20T10:43:26.886Z,29.20
2018-06-20T10:46:00.667Z,29.30
2018-06-20T10:48:29.090Z,29.40
2018-06-20T10:50:57.577Z,29.60
2018-06-20T10:53:26.016Z,29.70
2018-06-20T10:55:54.461Z,29.80
2018-06-20T10:58:28.192Z,29.80
2018-06-20T11:01:01.925Z,29.90
2018-06-20T11:03:35.810Z,30.00
2018-06-20T11:06:09.553Z,30.10
2018-06-20T11:08:43.317Z,30.20
2018-06-20T11:11:17.201Z,30.30
2018-06-20T11:13:45.761Z,30.40
2018-06-20T11:16:14.213Z,30.50
2018-06-20T11:18:45.797Z,30.50
2018-06-20T11:21:14.249Z,30.60
2018-06-20T11:23:42.720Z,30.60
2018-06-20T11:26:11.205Z,30.70
2018-06-20T11:33:35.971Z,30.90
2018-06-20T11:36:04.604Z,31.00
2018-06-20T11:38:33.105Z,31.00
2018-06-20T11:41:01.545Z,31.10
2018-06-20T11:43:30.019Z,31.10
2018-06-20T11:46:03.885Z,31.30
2018-06-20T11:48:32.336Z,31.40
2018-06-20T11:51:00.777Z,31.60
2018-06-20T11:53:29.237Z,31.80
2018-06-20T11:55:57.734Z,31.90
2018-06-20T11:58:31.482Z,32.00
2018-06-20T12:01:05.389Z,32.10
2018-06-20T12:03:39.145Z,32.10
2018-06-20T12:06:13.249Z,32.10
2018-06-20T12:08:46.928Z,32.10
2018-06-20T12:11:20.737Z,32.10
2018-06-20T12:13:54.541Z,32.20
2018-06-20T12:16:24.918Z,32.40
2018-06-20T12:18:58.884Z,32.50
2018-06-20T12:21:32.797Z,32.60
2018-06-20T12:24:06.615Z,32.70
2018-06-20T12:26:40.365Z,32.80
2018-06-20T12:29:14.324Z,32.80
2018-06-20T12:31:48.108Z,32.70
2018-06-20T12:34:21.900Z,32.80
2018-06-20T12:36:55.729Z,32.70
2018-06-20T12:39:23.361Z,32.80
2018-06-20T12:41:57.265Z,32.90
2018-06-20T12:44:25.948Z,33.10
2018-06-20T12:47:29.321Z,33.30
2018-06-20T12:50:01.393Z,33.30
2018-06-20T12:52:29.844Z,33.20
2018-06-20T12:54:58.391Z,32.90
2018-06-20T12:57:26.866Z,32.70
2018-06-20T12:59:55.402Z,32.30
2018-06-20T13:02:23.833Z,32.30
2018-06-20T13:04:52.413Z,32.50
2018-06-20T13:07:20.876Z,32.70
2018-06-20T13:09:49.318Z,32.90
2018-06-20T13:12:18.077Z,33.20
2018-06-20T13:14:46.573Z,33.50
2018-06-20T13:17:15.079Z,33.60
2018-06-20T13:19:43.525Z,33.80
2018-06-20T13:24:40.214Z,34.00
2018-06-20T13:27:08.896Z,34.10
2018-06-20T13:29:37.389Z,34.20
2018-06-20T13:32:11.279Z,34.40
2018-06-20T13:34:45.047Z,34.70
2018-06-20T13:37:19.087Z,34.60
2018-06-20T13:39:52.953Z,34.20
2018-06-20T13:42:26.816Z,33.70
2018-06-20T13:44:59.044Z,33.30
2018-06-20T13:48:30.745Z,33.00
2018-06-20T13:50:59.230Z,32.90
2018-06-20T13:53:27.699Z,32.70
2018-06-20T13:55:56.231Z,32.60
2018-06-20T13:58:24.829Z,32.30
2018-06-20T14:00:53.481Z,32.20
2018-06-20T14:03:21.929Z,32.20
2018-06-20T14:05:50.389Z,32.70
2018-06-20T14:08:18.873Z,33.10
2018-06-20T14:10:47.379Z,33.60
2018-06-20T14:13:15.821Z,33.90
2018-06-20T14:15:44.337Z,34.30
2018-06-20T14:18:12.885Z,34.60
2018-06-20T14:20:46.549Z,34.70
2018-06-20T14:23:15.006Z,34.90
2018-06-20T14:25:43.452Z,35.20
2018-06-20T14:28:11.933Z,35.40
2018-06-20T14:30:45.817Z,35.50
2018-06-20T14:33:19.561Z,35.60
2018-06-20T14:38:26.891Z,35.50
2018-06-20T14:41:00.670Z,35.60
2018-06-20T14:43:34.352Z,35.80
2018-06-20T14:46:08.141Z,36.00
2018-06-20T14:48:36.617Z,36.10
2018-06-20T14:51:05.759Z,36.20
2018-06-20T14:53:40.657Z,36.20
2018-06-20T14:56:09.288Z,36.30
2018-06-20T14:58:37.859Z,36.50
2018-06-20T15:01:06.437Z,36.60
2018-06-20T15:03:35.011Z,36.70
2018-06-20T15:06:03.521Z,36.60
2018-06-20T15:08:32.001Z,36.60
2018-06-20T15:11:00.441Z,36.60
2018-06-20T15:13:29.250Z,36.60
2018-06-20T15:18:30.397Z,36.70
2018-06-20T15:20:58.873Z,36.80
2018-06-20T15:23:27.314Z,36.80
2018-06-20T15:26:01.180Z,36.90
2018-06-20T15:31:08.601Z,36.90
2018-06-20T15:33:42.337Z,36.70
2018-06-20T15:36:16.233Z,36.70
2018-06-20T15:38:44.680Z,36.80
2018-06-20T15:43:41.313Z,37.00
2018-06-20T15:46:09.786Z,37.20
2018-06-20T15:48:38.229Z,37.40
2018-06-20T15:51:06.886Z,37.60
2018-06-20T15:53:35.349Z,37.70
2018-06-20T15:56:03.830Z,37.70
2018-06-20T15:58:32.289Z,37.70
2018-06-20T16:01:00.741Z,37.50
2018-06-20T16:03:29.168Z,37.20
2018-06-20T16:05:57.641Z,37.00
2018-06-20T16:08:26.132Z,36.80
2018-06-20T16:10:54.609Z,36.70
2018-06-20T16:13:23.063Z,36.60
2018-06-20T16:15:51.521Z,36.30
2018-06-20T16:18:20.389Z,36.20
2018-06-20T16:20:54.213Z,36.10
2018-06-20T16:23:28.139Z,36.00
2018-06-20T16:26:01.922Z,35.80
2018-06-20T16:28:35.807Z,35.50
2018-06-20T16:31:04.261Z,35.30
2018-06-20T16:33:32.714Z,35.00
2018-06-20T16:36:01.157Z,34.70
2018-06-20T16:38:29.609Z,34.40
2018-06-20T16:40:58.077Z,34.20
2018-06-20T16:43:26.549Z,33.90
2018-06-20T16:45:55.019Z,33.60
2018-06-20T16:48:23.469Z,33.30
2018-06-20T16:50:51.904Z,33.10
2018-06-20T16:53:20.420Z,32.80
2018-06-20T16:55:48.885Z,32.50
2018-06-20T16:58:17.364Z,32.30
2018-06-20T17:00:45.819Z,32.10
2018-06-20T17:03:14.254Z,31.90
2018-06-20T17:05:42.729Z,31.70
2018-06-20T17:08:11.205Z,31.60
2018-06-20T17:10:39.681Z,31.50
2018-06-20T17:13:13.532Z,31.40
2018-06-20T17:15:47.297Z,31.40
2018-06-20T17:18:21.113Z,31.30
2018-06-20T17:20:54.889Z,31.20
2018-06-20T17:23:28.664Z,31.10
2018-06-20T17:25:57.197Z,31.00
2018-06-20T17:28:25.665Z,30.80
2018-06-20T17:30:54.441Z,30.70
2018-06-20T17:33:22.918Z,30.70
2018-06-20T17:35:51.709Z,30.70
2018-06-20T17:38:20.174Z,30.70
2018-06-20T17:40:48.677Z,30.80
2018-06-20T17:43:17.176Z,30.90
2018-06-20T17:45:45.625Z,31.00
2018-06-20T17:48:14.263Z,31.10
2018-06-20T17:50:42.726Z,31.10
2018-06-20T17:53:11.178Z,31.20
2018-06-20T17:55:39.629Z,31.20
2018-06-20T17:58:08.149Z,31.20
2018-06-20T18:01:11.842Z,31.20
2018-06-20T18:03:41.283Z,31.20
2018-06-20T18:06:15.202Z,31.20
2018-06-20T18:08:48.877Z,31.10
2018-06-20T18:11:22.628Z,31.00
2018-06-20T18:13:56.522Z,30.90
2018-06-20T18:18:58.589Z,30.60
2018-06-20T18:21:27.063Z,30.50
2018-06-20T18:23:55.517Z,30.30
2018-06-20T18:26:24.009Z,30.20
2018-06-20T18:28:52.424Z,30.00
2018-06-20T18:31:20.929Z,29.90
2018-06-20T18:33:49.401Z,29.80
2018-06-20T18:36:17.863Z,29.70
2018-06-20T18:41:14.969Z,29.40
2018-06-20T18:43:43.373Z,29.30
2018-06-20T18:46:12.794Z,29.20
2018-06-20T18:48:42.437Z,29.10
2018-06-20T18:51:11.896Z,29.00
2018-06-20T18:53:40.555Z,28.90
2018-06-20T18:56:09.777Z,28.80
2018-06-20T18:58:43.714Z,28.70
2018-06-20T19:01:18.793Z,28.60
2018-06-20T19:03:52.593Z,28.50
2018-06-20T19:06:26.421Z,28.40
2018-06-20T19:08:58.561Z,28.30
2018-06-20T19:11:27.025Z,28.20
2018-06-20T19:13:55.469Z,28.10
2018-06-20T19:16:23.941Z,28.00
2018-06-20T19:18:52.397Z,27.90
2018-06-20T19:21:20.900Z,27.80
2018-06-20T19:23:49.391Z,27.70
2018-06-20T19:26:17.885Z,27.60
2018-06-20T19:28:46.414Z,27.50
2018-06-20T19:31:14.874Z,27.50
2018-06-20T19:33:43.379Z,27.30
2018-06-20T19:36:11.829Z,27.30
2018-06-20T19:38:40.337Z,27.10
2018-06-20T19:41:09.023Z,27.00
2018-06-20T19:43:41.713Z,26.90
2018-06-20T19:46:10.165Z,26.80
2018-06-20T19:48:38.605Z,26.80
2018-06-20T19:51:07.105Z,26.80
2018-06-20T19:53:35.662Z,26.70
2018-06-20T19:56:04.361Z,26.60
2018-06-20T19:58:32.992Z,26.50
2018-06-20T20:01:01.478Z,26.40
2018-06-20T20:03:30.001Z,26.30
2018-06-20T20:05:58.467Z,26.30
2018-06-20T20:08:26.967Z,26.20
2018-06-20T20:10:55.406Z,26.10
2018-06-20T20:13:23.877Z,26.10
2018-06-20T20:15:52.329Z,26.00
2018-06-20T20:18:20.781Z,26.00
2018-06-20T20:20:49.273Z,25.90
2018-06-20T20:23:18.500Z,25.80
2018-06-20T20:25:46.958Z,25.80
2018-06-20T20:28:15.665Z,25.70
2018-06-20T20:30:44.121Z,25.60
2018-06-20T20:33:12.569Z,25.60
2018-06-20T20:35:41.013Z,25.50
2018-06-20T20:38:09.541Z,25.40
2018-06-20T20:40:37.977Z,25.40
2018-06-20T20:45:34.745Z,25.20
2018-06-20T20:48:03.285Z,25.20
2018-06-20T20:50:31.760Z,25.10
2018-06-20T20:53:00.326Z,25.10
2018-06-20T20:55:28.789Z,25.00
2018-06-20T20:57:57.255Z,25.00
2018-06-20T21:00:25.721Z,25.00
2018-06-20T21:07:50.497Z,24.90
2018-06-20T21:10:18.953Z,24.80
2018-06-20T21:12:47.412Z,24.70
2018-06-20T21:15:15.860Z,24.70
2018-06-20T21:17:44.294Z,24.70
2018-06-20T21:20:12.789Z,24.70
2018-06-20T21:22:41.264Z,24.70
2018-06-20T21:25:09.713Z,24.60
2018-06-20T21:27:38.161Z,24.50
2018-06-20T21:30:06.645Z,24.50
2018-06-20T21:32:35.129Z,24.50
2018-06-20T21:35:03.597Z,24.50
2018-06-20T21:37:32.068Z,24.50
2018-06-20T21:40:00.600Z,24.50
2018-06-20T21:42:29.017Z,24.40
2018-06-20T21:44:57.477Z,24.30
2018-06-20T21:47:26.053Z,24.30
2018-06-20T21:52:22.657Z,24.10
2018-06-20T21:54:51.138Z,24.10
2018-06-20T21:57:19.605Z,24.00
2018-06-20T21:59:48.049Z,24.00
2018-06-20T22:02:16.533Z,23.90
2018-06-20T22:04:45.002Z,23.90
2018-06-20T22:07:13.454Z,23.90
2018-06-20T22:09:41.913Z,23.90
2018-06-20T22:12:10.489Z,23.80
2018-06-20T22:14:39.006Z,23.80
2018-06-20T22:17:07.593Z,23.80
2018-06-20T22:19:36.049Z,23.70
2018-06-20T22:22:04.529Z,23.70
2018-06-20T22:24:33.088Z,23.70
2018-06-20T22:27:01.593Z,23.60
2018-06-20T22:29:30.077Z,23.60
2018-06-20T22:31:58.531Z,23.60
2018-06-20T22:34:26.985Z,23.50
2018-06-20T22:36:55.437Z,23.50
2018-06-20T22:39:23.897Z,23.40
2018-06-20T22:41:52.356Z,23.40
2018-06-20T22:44:20.789Z,23.30
2018-06-20T22:46:49.226Z,23.30
2018-06-20T22:49:17.705Z,23.30
2018-06-20T22:51:46.150Z,23.30
2018-06-20T22:54:14.609Z,23.30
2018-06-20T22:56:43.048Z,23.30
2018-06-20T22:59:11.516Z,23.30
2018-06-20T23:01:39.953Z,23.30
2018-06-20T23:04:08.392Z,23.20
2018-06-20T23:06:36.839Z,23.10
2018-06-20T23:09:08.157Z,23.10
2018-06-20T23:11:41.973Z,23.10
2018-06-20T23:14:10.429Z,23.00
2018-06-20T23:16:38.915Z,23.00
2018-06-20T23:19:07.902Z,23.00
2018-06-20T23:21:36.346Z,23.00
2018-06-20T23:24:04.853Z,22.90
2018-06-20T23:26:33.293Z,22.90
2018-06-20T23:29:01.793Z,22.90
2018-06-20T23:31:30.273Z,22.80
2018-06-20T23:33:58.756Z,22.80
2018-06-20T23:36:27.221Z,22.70
2018-06-20T23:38:55.676Z,22.70
2018-06-20T23:41:24.128Z,22.60
2018-06-20T23:43:52.631Z,22.60
2018-06-20T23:46:21.105Z,22.60
2018-06-20T23:48:49.569Z,22.50
2018-06-20T23:51:18.071Z,22.50
2018-06-20T23:53:46.517Z,22.50
2018-06-20T23:56:14.969Z,22.50
2018-06-20T23:58:43.420Z,22.50
